Time;durP1;ratioP1;P1;durP2;ratioP2;P2;SDS_P1;SDS_P2;PMS_P1;PMS_P2;Temp;Humidity;BMP_temperature;BMP_pressure;BME280_temperature;BME280_humidity;BME280_pressure;Samples;Min_cycle;Max_cycle;Signal;HPM_P1;HPM_P2
2022/07/13 00:02:22;;;;;;;4.57;0.90;;;;;;;15.28;96.24;99702.03;5128720;27;20057;-78
2022/07/13 00:04:49;;;;;;;0.88;0.50;;;;;;;15.33;95.50;99711.34;5127028;27;20051;-78
2022/07/13 00:07:16;;;;;;;4.22;0.70;;;;;;;15.15;95.52;99681.75;5128001;27;20039;-78
2022/07/13 00:09:43;;;;;;;3.28;0.70;;;;;;;15.12;96.71;99684.91;5131261;27;20046;-78
2022/07/13 00:12:10;;;;;;;1.80;0.95;;;;;;;15.20;95.50;99700.31;5132574;27;20047;-78
2022/07/13 00:14:39;;;;;;;0.73;0.73;;;;;;;15.28;94.71;99685.59;5133364;27;20074;-78
2022/07/13 00:17:05;;;;;;;1.13;0.80;;;;;;;15.23;94.72;99688.97;5135775;27;20072;-78
2022/07/13 00:19:32;;;;;;;0.60;0.60;;;;;;;15.13;95.79;99689.34;5132982;27;20042;-78
2022/07/13 00:21:58;;;;;;;1.05;0.73;;;;;;;15.03;97.33;99695.16;5132587;27;20047;-78
2022/07/13 00:24:28;;;;;;;3.08;0.73;;;;;;;14.98;98.46;99689.47;5132196;27;20077;-78
2022/07/13 00:26:54;;;;;;;3.33;0.80;;;;;;;14.92;97.62;99681.19;5130537;27;20158;-79
2022/07/13 00:29:21;;;;;;;1.10;0.90;;;;;;;14.95;98.37;99692.59;5133600;27;20047;-78
2022/07/13 00:31:49;;;;;;;1.23;0.90;;;;;;;14.81;99.25;99679.84;5128195;27;20051;-79
2022/07/13 00:34:15;;;;;;;0.95;0.70;;;;;;;14.78;99.67;99685.72;5130882;27;20128;-78
2022/07/13 00:36:42;;;;;;;0.70;0.70;;;;;;;14.83;99.20;99688.72;5127145;27;20047;-76
2022/07/13 00:39:09;;;;;;;0.80;0.60;;;;;;;14.43;100.00;99666.50;5129390;27;20050;-78
2022/07/13 00:41:35;;;;;;;0.93;0.77;;;;;;;14.31;100.00;99664.28;5131547;27;20073;-79
2022/07/13 00:44:08;;;;;;;1.15;0.95;;;;;;;14.31;100.00;99686.16;5132415;27;20057;-79
2022/07/13 00:46:35;;;;;;;1.38;1.00;;;;;;;14.59;100.00;99695.44;5127697;27;20056;-79
2022/07/13 00:49:03;;;;;;;1.95;1.42;;;;;;;14.54;100.00;99704.25;5129575;27;20417;-78
2022/07/13 00:51:31;;;;;;;0.57;0.57;;;;;;;14.40;100.00;99697.81;5128889;27;20046;-79
2022/07/13 00:54:00;;;;;;;0.90;0.80;;;;;;;14.56;100.00;99699.44;5132674;27;20426;-78
2022/07/13 00:56:27;;;;;;;0.80;0.80;;;;;;;14.46;99.55;99697.03;5127777;27;20054;-78
2022/07/13 00:58:54;;;;;;;0.60;0.60;;;;;;;14.20;100.00;99683.13;5133294;27;20126;-79
2022/07/13 01:01:20;;;;;;;0.73;0.65;;;;;;;14.29;100.00;99674.59;5127255;27;20421;-78
2022/07/13 01:03:47;;;;;;;1.25;0.90;;;;;;;14.38;100.00;99686.22;5126750;27;20405;-79
2022/07/13 01:06:16;;;;;;;1.13;0.80;;;;;;;14.49;100.00;99680.22;5121603;27;20043;-78
2022/07/13 01:08:42;;;;;;;0.85;0.80;;;;;;;14.37;100.00;99686.44;5128568;27;20142;-78
2022/07/13 01:11:09;;;;;;;1.20;1.00;;;;;;;14.32;100.00;99662.41;5130601;27;20047;-79
2022/07/13 01:13:37;;;;;;;1.33;0.70;;;;;;;14.47;98.65;99654.13;5132058;27;20051;-79
2022/07/13 01:16:03;;;;;;;1.63;0.90;;;;;;;14.61;98.66;99676.97;5130708;27;20489;-78
2022/07/13 01:18:31;;;;;;;0.65;0.65;;;;;;;14.55;99.61;99667.63;5120500;27;20042;-79
2022/07/13 01:20:58;;;;;;;2.05;0.90;;;;;;;14.63;99.92;99675.75;5129644;27;20043;-79
2022/07/13 01:23:27;;;;;;;0.80;0.80;;;;;;;14.52;100.00;99668.88;5131763;27;20126;-79
2022/07/13 01:25:56;;;;;;;0.90;0.90;;;;;;;14.68;100.00;99680.63;5127459;27;20045;-79
2022/07/13 01:28:23;;;;;;;0.93;0.93;;;;;;;14.61;100.00;99676.97;5128319;27;20051;-78
2022/07/13 01:30:49;;;;;;;0.80;0.80;;;;;;;14.61;100.00;99660.56;5125700;27;20046;-79
2022/07/13 01:33:16;;;;;;;2.22;0.85;;;;;;;14.76;100.00;99676.88;5130301;27;20058;-78
2022/07/13 01:35:52;;;;;;;0.77;0.75;;;;;;;14.74;100.00;99677.09;5131322;27;20489;-79
2022/07/13 01:38:18;;;;;;;1.20;1.10;;;;;;;14.58;100.00;99663.66;5114572;27;20064;-79
2022/07/13 01:40:46;;;;;;;0.98;0.85;;;;;;;14.46;100.00;99646.94;5131600;27;20371;-79
2022/07/13 01:43:13;;;;;;;3.05;1.00;;;;;;;14.64;100.00;99685.63;5122696;27;20065;-78
2022/07/13 01:45:39;;;;;;;4.50;2.50;;;;;;;14.60;100.00;99676.13;5130094;27;20066;-79
2022/07/13 01:48:07;;;;;;;0.90;0.90;;;;;;;14.67;100.00;99674.28;5120775;27;20054;-79
2022/07/13 01:50:33;;;;;;;1.38;0.75;;;;;;;14.55;100.00;99658.59;5125077;27;20061;-79
2022/07/13 01:53:00;;;;;;;0.90;0.90;;;;;;;14.67;100.00;99671.53;5120952;27;20036;-79
2022/07/13 01:55:27;;;;;;;0.80;0.70;;;;;;;14.57;100.00;99664.69;5127838;27;20512;-79
2022/07/13 01:57:58;;;;;;;1.10;1.00;;;;;;;14.48;100.00;99651.19;5129458;27;20406;-78
2022/07/13 02:00:24;;;;;;;2.03;1.00;;;;;;;14.52;100.00;99646.97;5130739;27;20050;-79
2022/07/13 02:02:51;;;;;;;1.77;0.90;;;;;;;14.40;100.00;99654.06;5122978;27;20051;-79
2022/07/13 02:05:18;;;;;;;0.90;0.90;;;;;;;14.50;100.00;99638.16;5127391;27;20039;-78
2022/07/13 02:07:45;;;;;;;1.10;0.90;;;;;;;14.76;100.00;99668.69;5118480;27;20054;-79
2022/07/13 02:10:12;;;;;;;1.10;1.00;;;;;;;14.75;100.00;99642.34;5127213;27;20053;-79
2022/07/13 02:12:39;;;;;;;0.73;0.70;;;;;;;14.69;100.00;99644.84;5117116;27;20066;-79
2022/07/13 02:15:09;;;;;;;0.68;0.68;;;;;;;14.55;100.00;99639.44;5130508;27;20053;-80
2022/07/13 02:17:35;;;;;;;1.83;1.00;;;;;;;14.58;100.00;99645.34;5125087;27;20505;-79
2022/07/13 02:20:02;;;;;;;2.08;1.05;;;;;;;14.57;100.00;99629.97;5125508;27;20043;-79
2022/07/13 02:22:40;;;;;;;0.80;0.80;;;;;;;14.60;100.00;99635.06;5122377;27;20517;-79
2022/07/13 02:25:08;;;;;;;1.27;0.77;;;;;;;14.54;100.00;99624.91;5130109;27;20478;-79
2022/07/13 02:27:35;;;;;;;0.82;0.80;;;;;;;14.40;100.00;99612.19;5130326;27;20039;-79
2022/07/13 02:30:01;;;;;;;1.17;0.90;;;;;;;14.41;100.00;99605.69;5122674;27;20047;-78
2022/07/13 02:32:29;;;;;;;1.10;1.00;;;;;;;14.59;100.00;99621.56;5129620;27;20046;-78
2022/07/13 02:34:56;;;;;;;2.65;1.05;;;;;;;14.58;100.00;99600.75;5130097;28;20483;-79
2022/07/13 02:37:22;;;;;;;1.15;1.00;;;;;;;14.78;100.00;99622.78;5123849;28;20159;-79
2022/07/13 02:39:51;;;;;;;0.80;0.80;;;;;;;14.72;100.00;99623.59;5128314;28;20057;-79
2022/07/13 02:42:18;;;;;;;2.63;1.00;;;;;;;14.61;100.00;99625.00;5124220;28;20135;-79
2022/07/13 02:44:44;;;;;;;0.77;0.77;;;;;;;14.49;100.00;99608.25;5129080;28;20062;-79
2022/07/13 02:47:12;;;;;;;1.20;0.73;;;;;;;14.34;100.00;99606.44;5123365;27;20047;-79
2022/07/13 02:49:40;;;;;;;2.03;0.88;;;;;;;14.37;100.00;99609.84;5124150;28;20047;-79
2022/07/13 02:52:07;;;;;;;0.80;0.80;;;;;;;14.29;100.00;99608.94;5120075;28;20091;-79
2022/07/13 02:54:33;;;;;;;0.90;0.90;;;;;;;14.44;100.00;99619.78;5126270;28;20462;-79
2022/07/13 02:57:00;;;;;;;1.48;1.10;;;;;;;14.52;100.00;99603.22;5129757;28;20045;-79
2022/07/13 02:59:26;;;;;;;3.05;0.90;;;;;;;14.59;100.00;99614.22;5117701;28;20044;-79
2022/07/13 03:01:53;;;;;;;1.73;1.02;;;;;;;14.39;100.00;99608.63;5128562;28;20051;-79
2022/07/13 03:04:19;;;;;;;1.58;0.90;;;;;;;14.45;100.00;99612.41;5130317;28;20524;-79
2022/07/13 03:06:47;;;;;;;3.90;1.05;;;;;;;14.28;100.00;99593.56;5126547;28;20047;-79
2022/07/13 03:09:14;;;;;;;2.15;0.90;;;;;;;14.56;100.00;99625.56;5130632;28;20051;-79
2022/07/13 03:11:40;;;;;;;0.70;0.60;;;;;;;14.48;100.00;99604.69;5121829;27;20047;-79
2022/07/13 03:14:07;;;;;;;0.90;0.90;;;;;;;14.48;100.00;99623.84;5131582;27;20405;-78
2022/07/13 03:16:34;;;;;;;0.90;0.80;;;;;;;14.31;100.00;99606.00;5127071;27;20039;-79
2022/07/13 03:19:01;;;;;;;1.75;1.05;;;;;;;14.27;100.00;99618.38;5135049;27;20055;-79
2022/07/13 03:21:29;;;;;;;3.83;0.80;;;;;;;14.24;100.00;99605.09;5132047;27;20043;-79
2022/07/13 03:23:56;;;;;;;1.33;0.70;;;;;;;14.33;100.00;99612.97;5134129;27;20043;-78
2022/07/13 03:26:24;;;;;;;1.13;1.00;;;;;;;14.32;100.00;99592.13;5132598;27;20036;-78
2022/07/13 03:28:51;;;;;;;2.55;1.00;;;;;;;14.43;100.00;99615.34;5135007;27;20134;-79
2022/07/13 03:31:17;;;;;;;0.93;0.93;;;;;;;14.25;100.00;99596.72;5131049;27;20421;-79
2022/07/13 03:33:44;;;;;;;8.27;1.48;;;;;;;14.38;100.00;99592.38;5124310;27;20047;-79
2022/07/13 03:36:11;;;;;;;1.15;0.80;;;;;;;14.48;100.00;99617.50;5132503;27;20043;-79
2022/07/13 03:38:38;;;;;;;1.27;0.90;;;;;;;14.40;100.00;99596.59;5133318;27;20335;-79
2022/07/13 03:41:06;;;;;;;0.98;0.88;;;;;;;14.39;100.00;99619.56;5133254;27;20047;-78
2022/07/13 03:43:33;;;;;;;1.70;1.00;;;;;;;14.36;100.00;99613.63;5133534;27;20473;-79
2022/07/13 03:45:59;;;;;;;1.45;1.10;;;;;;;14.37;100.00;99615.31;5132942;27;20049;-79
2022/07/13 03:48:26;;;;;;;2.05;0.95;;;;;;;14.48;100.00;99620.22;5131260;27;20047;-78
2022/07/13 03:50:52;;;;;;;1.23;1.13;;;;;;;14.37;100.00;99615.31;5130766;27;20538;-79
2022/07/13 03:53:19;;;;;;;1.95;1.00;;;;;;;14.31;100.00;99589.59;5133922;27;20050;-78
2022/07/13 03:55:46;;;;;;;0.98;0.88;;;;;;;14.48;100.00;99603.81;5132859;27;20043;-78
2022/07/13 03:58:14;;;;;;;1.05;0.82;;;;;;;14.44;100.00;99603.38;5134233;27;20129;-79
2022/07/13 04:00:40;;;;;;;1.50;1.00;;;;;;;14.38;100.00;99619.72;5132751;27;20422;-78
2022/07/13 04:03:07;;;;;;;2.42;1.08;;;;;;;14.16;100.00;99609.66;5131112;27;20058;-79
2022/07/13 04:05:34;;;;;;;1.73;1.08;;;;;;;14.14;100.00;99611.78;5115370;27;20455;-79
2022/07/13 04:08:00;;;;;;;1.17;1.05;;;;;;;13.95;100.00;99585.94;5130597;27;20054;-78
2022/07/13 04:10:27;;;;;;;2.03;0.90;;;;;;;14.07;100.00;99602.66;5129467;27;20070;-78
2022/07/13 04:12:53;;;;;;;1.40;1.00;;;;;;;14.14;100.00;99614.50;5128782;27;20055;-79
2022/07/13 04:15:21;;;;;;;3.20;1.02;;;;;;;14.00;100.00;99585.38;5129080;27;20039;-78
2022/07/13 04:17:48;;;;;;;3.20;1.65;;;;;;;14.20;100.00;99595.63;5132409;27;20047;-79
2022/07/13 04:20:14;;;;;;;2.72;2.10;;;;;;;14.24;100.00;99588.69;5132061;27;20047;-78
2022/07/13 04:22:41;;;;;;;3.42;2.65;;;;;;;14.18;100.00;99571.19;5130805;27;20062;-79
2022/07/13 04:25:08;;;;;;;3.03;1.88;;;;;;;14.25;100.00;99565.78;5129543;27;20422;-78
2022/07/13 04:27:35;;;;;;;2.42;1.92;;;;;;;14.40;100.00;99587.56;5126579;27;20043;-79
2022/07/13 04:30:02;;;;;;;2.90;1.17;;;;;;;14.20;100.00;99560.91;5133591;27;20495;-79
2022/07/13 04:32:30;;;;;;;3.42;1.02;;;;;;;14.27;100.00;99566.44;5123631;27;20057;-79
2022/07/13 04:34:56;;;;;;;4.43;1.13;;;;;;;14.34;100.00;99584.56;5129508;27;20054;-78
2022/07/13 04:37:23;;;;;;;2.30;1.52;;;;;;;14.42;100.00;99578.13;5127270;27;20047;-78
2022/07/13 04:39:50;;;;;;;1.60;1.10;;;;;;;14.41;100.00;99584.63;5129128;27;20051;-78
2022/07/13 04:42:16;;;;;;;2.42;0.98;;;;;;;14.58;100.00;99585.16;5124025;27;20047;-78
2022/07/13 04:44:43;;;;;;;3.15;1.00;;;;;;;14.64;100.00;99576.16;5129892;27;20055;-79
2022/07/13 04:47:09;;;;;;;0.98;0.90;;;;;;;14.86;100.00;99608.94;5123862;27;20043;-79
2022/07/13 04:49:38;;;;;;;6.65;1.38;;;;;;;14.82;100.00;99597.53;5132385;27;20554;-78
2022/07/13 04:52:06;;;;;;;1.50;0.95;;;;;;;14.88;100.00;99606.84;5131913;27;20139;-79
2022/07/13 04:54:33;;;;;;;1.63;1.10;;;;;;;14.82;100.00;99591.22;5132000;27;20046;-79
2022/07/13 04:56:59;;;;;;;2.17;1.10;;;;;;;14.81;100.00;99575.84;5133140;27;20093;-79
2022/07/13 04:59:26;;;;;;;1.23;1.13;;;;;;;14.85;100.00;99569.75;5131036;27;20043;-79
2022/07/13 05:01:53;;;;;;;1.63;0.95;;;;;;;14.97;100.00;99577.41;5129520;27;20045;-79
2022/07/13 05:04:20;;;;;;;2.05;1.10;;;;;;;15.03;100.00;99587.53;5131878;27;20410;-79
2022/07/13 05:06:48;;;;;;;1.10;1.00;;;;;;;15.18;100.00;99571.81;5129779;27;20047;-79
2022/07/13 05:09:14;;;;;;;1.15;1.05;;;;;;;15.88;99.31;99557.00;5129318;27;20141;-77
2022/07/13 05:11:41;;;;;;;1.08;1.02;;;;;;;16.34;94.07;99574.53;5133355;27;20055;-77
2022/07/13 05:14:08;;;;;;;1.90;0.98;;;;;;;16.66;93.38;99597.47;5125118;27;20554;-77
2022/07/13 05:16:34;;;;;;;1.80;1.15;;;;;;;16.75;92.07;99585.22;5127194;27;20477;-77
2022/07/13 05:19:01;;;;;;;4.93;1.40;;;;;;;17.01;91.36;99582.63;5133379;27;20134;-77
2022/07/13 05:21:28;;;;;;;1.20;1.10;;;;;;;16.95;88.33;99579.72;5128473;27;20395;-77
2022/07/13 05:23:56;;;;;;;1.17;0.80;;;;;;;17.72;82.92;99608.28;5129578;27;20134;-77
2022/07/13 05:26:22;;;;;;;2.75;1.38;;;;;;;18.39;78.32;99590.25;5123252;27;20170;-77
2022/07/13 05:28:49;;;;;;;3.92;1.05;;;;;;;18.53;77.77;99601.13;5130770;27;20053;-77
2022/07/13 05:31:15;;;;;;;1.65;1.05;;;;;;;18.61;76.99;99598.09;5131214;27;20054;-77
2022/07/13 05:33:42;;;;;;;1.23;1.02;;;;;;;19.38;72.99;99603.19;5131573;27;20513;-77
2022/07/13 05:36:09;;;;;;;3.58;1.05;;;;;;;20.16;68.36;99578.53;5129439;27;20533;-77
2022/07/13 05:38:36;;;;;;;1.17;1.00;;;;;;;20.83;65.94;99585.63;5128417;27;20058;-78
2022/07/13 05:41:04;;;;;;;1.92;1.00;;;;;;;21.17;65.38;99570.06;5131070;27;20057;-78
2022/07/13 05:43:30;;;;;;;0.80;0.80;;;;;;;21.42;64.99;99587.41;5129171;27;20058;-78
2022/07/13 05:45:57;;;;;;;4.50;0.70;;;;;;;21.30;65.66;99568.09;5131501;27;20509;-78
2022/07/13 05:48:24;;;;;;;2.35;0.80;;;;;;;21.71;64.81;99578.06;5121744;27;20494;-79
2022/07/13 05:50:51;;;;;;;1.08;0.77;;;;;;;21.78;62.24;99564.06;5123599;27;20047;-78
2022/07/13 05:53:19;;;;;;;1.15;0.68;;;;;;;21.59;60.72;99580.06;5127669;27;20043;-77
2022/07/13 05:55:45;;;;;;;2.53;0.90;;;;;;;20.92;62.77;99577.81;5130926;27;20127;-78
2022/07/13 05:58:13;;;;;;;1.23;0.70;;;;;;;20.66;66.57;99575.31;5122444;27;20043;-77
2022/07/13 06:00:40;;;;;;;0.95;0.77;;;;;;;20.36;66.32;99580.94;5128484;27;20050;-78
2022/07/13 06:03:06;;;;;;;2.17;0.60;;;;;;;20.25;67.35;99576.22;5129066;27;20057;-77
2022/07/13 06:05:33;;;;;;;2.92;0.80;;;;;;;20.24;68.99;99580.09;5125061;27;20051;-77
2022/07/13 06:08:00;;;;;;;1.92;0.98;;;;;;;20.23;69.26;99570.94;5132607;27;20050;-78
2022/07/13 06:10:26;;;;;;;3.75;1.13;;;;;;;20.45;69.84;99585.00;5131371;27;20096;-79
2022/07/13 06:12:53;;;;;;;9.30;1.23;;;;;;;20.48;65.99;99559.69;5122119;27;20050;-79
2022/07/13 06:15:21;;;;;;;7.40;1.15;;;;;;;20.63;66.83;99580.47;5127637;27;20047;-79
2022/07/13 06:17:47;;;;;;;9.55;1.20;;;;;;;20.77;64.22;99581.09;5123641;27;20063;-79
2022/07/13 06:20:14;;;;;;;11.90;1.42;;;;;;;20.95;62.67;99583.69;5129830;27;20418;-79
2022/07/13 06:22:40;;;;;;;13.68;1.30;;;;;;;21.03;63.73;99601.81;5129653;27;20047;-79
2022/07/13 06:25:07;;;;;;;19.95;1.55;;;;;;;21.06;63.45;99583.91;5133788;27;20051;-79
2022/07/13 06:27:34;;;;;;;14.55;1.33;;;;;;;21.09;61.36;99584.28;5127040;27;20340;-79
2022/07/13 06:30:00;;;;;;;14.48;1.20;;;;;;;21.25;63.35;99588.19;5128464;27;20406;-79
2022/07/13 06:32:28;;;;;;;11.57;1.35;;;;;;;21.53;59.10;99589.34;5130505;27;20075;-79
2022/07/13 06:34:55;;;;;;;17.75;1.08;;;;;;;21.82;58.92;99578.25;5130370;27;20122;-79
2022/07/13 06:37:21;;;;;;;16.35;1.67;;;;;;;22.10;56.58;99596.75;5122044;28;20478;-79
2022/07/13 06:39:48;;;;;;;14.32;1.83;;;;;;;22.05;54.31;99572.56;5128236;27;20429;-79
2022/07/13 06:42:14;;;;;;;8.48;1.08;;;;;;;22.91;52.25;99573.34;5131692;27;20058;-79
2022/07/13 06:44:41;;;;;;;12.35;1.25;;;;;;;23.79;50.86;99587.19;5129780;28;20493;-79
2022/07/13 06:47:07;;;;;;;8.40;1.25;;;;;;;24.41;50.06;99581.38;5131242;28;20054;-79
2022/07/13 06:49:35;;;;;;;6.47;1.15;;;;;;;24.34;47.93;99564.94;5134051;27;20051;-79
2022/07/13 06:52:02;;;;;;;9.77;1.20;;;;;;;24.84;47.91;99577.53;5135049;27;20126;-79
2022/07/13 06:54:28;;;;;;;13.65;1.33;;;;;;;25.17;47.47;99581.03;5124822;27;20047;-78
2022/07/13 06:56:55;;;;;;;12.85;1.02;;;;;;;25.41;46.13;99592.56;5124748;27;20127;-79
2022/07/13 06:59:21;;;;;;;11.43;1.40;;;;;;;25.66;45.69;99581.78;5133008;27;21647;-79
2022/07/13 07:01:48;;;;;;;11.10;1.35;;;;;;;25.75;45.85;99583.75;5131343;27;20509;-79
2022/07/13 07:04:15;;;;;;;18.00;1.50;;;;;;;25.93;45.38;99576.81;5134455;27;20401;-78
2022/07/13 07:06:43;;;;;;;13.70;1.35;;;;;;;25.90;45.23;99580.16;5134180;27;20494;-79
2022/07/13 07:09:09;;;;;;;8.63;1.02;;;;;;;26.11;44.44;99567.09;5131869;27;20046;-79
2022/07/13 07:11:36;;;;;;;3.88;1.02;;;;;;;26.42;44.92;99547.59;5134768;27;20057;-78
2022/07/13 07:14:03;;;;;;;12.82;1.13;;;;;;;26.30;43.42;99572.13;5133387;27;20054;-79
2022/07/13 07:16:29;;;;;;;4.40;0.80;;;;;;;25.83;44.15;99575.97;5131804;27;20145;-79
2022/07/13 07:18:56;;;;;;;5.65;1.20;;;;;;;25.76;43.60;99573.47;5134006;27;20102;-77
2022/07/13 07:21:22;;;;;;;4.20;0.93;;;;;;;26.00;44.20;99586.88;5136326;27;20054;-78
2022/07/13 07:23:52;;;;;;;4.53;0.93;;;;;;;26.04;45.07;99593.56;5133970;27;20100;-78
2022/07/13 07:26:19;;;;;;;1.48;0.90;;;;;;;25.44;44.41;99575.34;5135032;27;20047;-79
2022/07/13 07:28:46;;;;;;;4.25;0.88;;;;;;;25.48;45.24;99580.34;5135034;27;20155;-79
2022/07/13 07:31:12;;;;;;;0.68;0.63;;;;;;;25.52;45.51;99565.59;5132775;27;20051;-80
2022/07/13 07:33:39;;;;;;;5.25;0.88;;;;;;;26.28;44.07;99547.31;5134327;27;20078;-79
2022/07/13 07:36:06;;;;;;;5.25;1.75;;;;;;;26.99;41.79;99572.59;5133287;27;20043;-78
2022/07/13 07:38:32;;;;;;;6.45;0.88;;;;;;;27.85;40.68;99562.13;5130865;27;20036;-79
2022/07/13 07:41:01;;;;;;;1.77;0.82;;;;;;;27.72;40.31;99557.19;5134461;27;20044;-78
2022/07/13 07:43:27;;;;;;;5.60;0.90;;;;;;;27.53;40.84;99571.81;5134039;27;20074;-78
2022/07/13 07:45:54;;;;;;;1.13;0.70;;;;;;;27.46;41.18;99568.53;5124762;27;20501;-79
2022/07/13 07:48:21;;;;;;;7.97;1.10;;;;;;;26.36;43.14;99565.44;5134515;27;20118;-77
2022/07/13 07:50:47;;;;;;;7.03;0.82;;;;;;;26.02;43.92;99559.59;5124682;27;20053;-78
2022/07/13 07:53:14;;;;;;;5.15;1.00;;;;;;;25.82;43.56;99566.78;5133750;27;20051;-78
2022/07/13 07:55:40;;;;;;;2.42;0.80;;;;;;;26.27;43.83;99559.59;5132543;27;20493;-78
2022/07/13 07:58:09;;;;;;;6.70;0.90;;;;;;;26.11;44.32;99553.19;5131975;27;20051;-77
2022/07/13 08:00:35;;;;;;;2.60;0.90;;;;;;;27.01;41.72;99565.59;5131894;27;20092;-78
2022/07/13 08:03:03;;;;;;;2.53;0.70;;;;;;;27.49;40.26;99556.78;5133437;27;20122;-78
2022/07/13 08:05:30;;;;;;;4.75;0.82;;;;;;;27.60;40.50;99549.16;5134118;27;20107;-78
2022/07/13 08:07:57;;;;;;;1.13;0.75;;;;;;;27.86;39.29;99551.78;5134360;27;20051;-78
2022/07/13 08:10:24;;;;;;;4.07;0.70;;;;;;;28.10;38.56;99553.88;5134193;27;20075;-79
2022/07/13 08:12:51;;;;;;;5.57;0.70;;;;;;;28.78;38.90;99550.16;5128439;27;20052;-78
2022/07/13 08:15:19;;;;;;;4.45;0.90;;;;;;;28.84;37.17;99548.97;5133547;27;20059;-78
2022/07/13 08:17:45;;;;;;;2.45;0.80;;;;;;;28.40;37.17;99527.63;5133905;27;20043;-78
2022/07/13 08:20:12;;;;;;;0.80;0.80;;;;;;;27.83;38.38;99525.25;5133865;27;20486;-78
2022/07/13 08:22:38;;;;;;;3.70;0.70;;;;;;;28.00;39.31;99529.63;5133306;27;20063;-80
2022/07/13 08:25:05;;;;;;;2.13;0.90;;;;;;;27.87;39.11;99515.19;5131607;27;20557;-79
2022/07/13 08:27:32;;;;;;;0.77;0.52;;;;;;;27.72;38.74;99535.69;5133315;27;20050;-79
2022/07/13 08:29:59;;;;;;;5.65;1.00;;;;;;;27.94;38.75;99528.81;5132706;27;20047;-79
2022/07/13 08:32:27;;;;;;;4.93;0.63;;;;;;;27.86;41.16;99537.81;5133093;27;20155;-79
2022/07/13 08:40:22;;;;;;;1.63;0.52;;;;;;;27.77;38.79;99528.41;5125200;27;20058;-76
2022/07/13 08:42:49;;;;;;;3.13;0.70;;;;;;;28.29;39.70;99534.41;5130141;27;20074;-76
2022/07/13 08:45:15;;;;;;;2.00;0.82;;;;;;;28.29;37.15;99534.41;5129961;27;20054;-76
2022/07/13 08:47:45;;;;;;;3.30;0.77;;;;;;;27.90;37.14;99533.34;5132885;27;20039;-76
2022/07/13 08:50:12;;;;;;;4.57;0.82;;;;;;;27.65;37.38;99525.97;5131311;27;20043;-77
2022/07/13 08:52:40;;;;;;;2.85;0.50;;;;;;;27.30;37.08;99497.13;5132148;27;20134;-77
2022/07/13 08:55:08;;;;;;;0.70;0.60;;;;;;;27.49;36.75;99498.16;5130735;27;20141;-77
2022/07/13 08:57:36;;;;;;;0.50;0.50;;;;;;;27.70;36.96;99523.97;5131148;27;20054;-77
2022/07/13 09:00:06;;;;;;;7.70;0.50;;;;;;;27.59;36.31;99524.31;5132326;27;20486;-77
2022/07/13 09:02:33;;;;;;;1.30;0.77;;;;;;;27.66;37.43;99516.47;5128390;27;20043;-77
2022/07/13 09:05:03;;;;;;;0.75;0.57;;;;;;;27.90;36.15;99497.84;5132595;27;20096;-76
2022/07/13 09:07:29;;;;;;;0.65;0.60;;;;;;;28.51;35.48;99529.16;5132008;27;20047;-78
2022/07/13 09:09:56;;;;;;;3.40;0.70;;;;;;;28.41;33.80;99510.53;5125378;27;20055;-78
2022/07/13 09:12:24;;;;;;;4.68;0.70;;;;;;;28.50;35.30;99527.50;5130927;27;20059;-77
2022/07/13 09:14:53;;;;;;;0.60;0.60;;;;;;;28.58;34.04;99528.81;5133004;27;20047;-78
2022/07/13 09:17:29;;;;;;;0.63;0.50;;;;;;;28.75;34.61;99514.41;5132610;27;20049;-77
2022/07/13 09:19:56;;;;;;;1.00;0.50;;;;;;;28.65;33.64;99514.50;5132653;27;20077;-78
2022/07/13 09:22:24;;;;;;;3.08;0.75;;;;;;;28.88;31.32;99524.06;5130561;27;20517;-78
2022/07/13 09:24:53;;;;;;;3.50;0.60;;;;;;;28.77;32.09;99517.72;5126943;27;20043;-78
2022/07/13 09:27:21;;;;;;;3.10;0.70;;;;;;;29.18;32.29;99531.22;5128439;27;20066;-78
2022/07/13 09:29:47;;;;;;;0.60;0.60;;;;;;;29.26;31.61;99533.38;5131544;27;20159;-78
2022/07/13 09:32:15;;;;;;;2.67;0.80;;;;;;;29.20;31.92;99514.97;5131548;27;20071;-78
2022/07/13 09:34:47;;;;;;;1.98;0.50;;;;;;;29.50;33.02;99520.47;5130032;27;20053;-78
2022/07/13 09:37:15;;;;;;;1.05;0.60;;;;;;;29.40;32.66;99516.69;5132205;27;20047;-78
2022/07/13 09:40:02;;;;;;;2.47;0.52;;;;;;;29.31;31.69;99512.88;5132502;27;20039;-78
2022/07/13 09:42:30;;;;;;;2.42;0.70;;;;;;;29.19;33.82;99512.47;5131116;27;20406;-78
2022/07/13 09:47:44;;;;;;;4.65;0.70;;;;;;;29.69;31.07;99526.06;5117318;27;20417;-78
2022/07/13 09:50:12;;;;;;;1.75;0.50;;;;;;;29.71;31.40;99518.19;5131708;27;20118;-79
2022/07/13 09:52:38;;;;;;;1.40;0.52;;;;;;;29.89;31.84;99520.16;5131916;27;20133;-79
2022/07/13 09:55:09;;;;;;;0.50;0.50;;;;;;;29.62;30.92;99510.47;5132064;27;20150;-77
2022/07/13 09:57:40;;;;;;;1.23;0.73;;;;;;;29.80;29.44;99520.00;5130096;27;20039;-79
2022/07/13 10:00:11;;;;;;;0.80;0.57;;;;;;;29.90;30.53;99535.84;5128858;27;20043;-79
2022/07/13 10:02:38;;;;;;;3.40;0.50;;;;;;;30.32;30.91;99521.97;5131328;27;20441;-77
2022/07/13 10:05:06;;;;;;;0.50;0.50;;;;;;;30.25;30.93;99521.56;5131717;27;20401;-77
2022/07/13 10:07:34;;;;;;;0.47;0.47;;;;;;;29.96;30.08;99523.44;5131906;27;20078;-77
2022/07/13 10:10:02;;;;;;;4.82;0.50;;;;;;;29.56;28.40;99508.88;5131733;27;20294;-77
2022/07/13 10:12:30;;;;;;;0.60;0.50;;;;;;;29.70;28.51;99520.16;5128309;27;20097;-77
2022/07/13 10:14:57;;;;;;;0.63;0.57;;;;;;;30.10;28.46;99508.63;5129483;27;20053;-77
2022/07/13 10:17:23;;;;;;;0.43;0.40;;;;;;;30.34;28.69;99506.50;5131713;27;20047;-77
2022/07/13 10:20:00;;;;;;;2.45;0.57;;;;;;;30.44;28.87;99504.66;5131697;27;20042;-80
2022/07/13 10:22:29;;;;;;;2.90;0.45;;;;;;;30.40;27.53;99503.59;5130889;27;20059;-77
2022/07/13 10:24:57;;;;;;;0.97;0.60;;;;;;;30.62;26.92;99517.81;5131617;27;20051;-77
2022/07/13 10:27:26;;;;;;;3.70;0.93;;;;;;;30.97;27.16;99500.53;5127198;27;20469;-77
2022/07/13 10:29:56;;;;;;;1.80;0.40;;;;;;;30.81;26.19;99502.84;5129205;27;20043;-77
2022/07/13 10:32:25;;;;;;;2.22;0.40;;;;;;;30.88;26.00;99508.88;5130121;27;20433;-77
2022/07/13 10:34:55;;;;;;;0.73;0.50;;;;;;;31.02;26.76;99503.28;5131405;27;20081;-77
2022/07/13 10:37:23;;;;;;;2.63;0.40;;;;;;;31.11;25.78;99498.59;5131783;27;20047;-77
2022/07/13 10:40:11;;;;;;;0.57;0.40;;;;;;;31.37;25.60;99498.03;5131582;28;20043;-77
2022/07/13 10:43:25;;;;;;;0.50;0.50;;;;;;;31.55;25.33;99499.84;5123820;28;20400;-79
2022/07/13 10:45:53;;;;;;;1.38;0.70;;;;;;;31.53;24.47;99498.50;5121437;28;20051;-78
2022/07/13 10:48:48;;;;;;;1.33;0.65;;;;;;;31.44;24.62;99494.78;5130059;27;20398;-78
2022/07/13 10:51:21;;;;;;;1.35;0.40;;;;;;;31.50;23.99;99497.16;5131908;28;20066;-78
2022/07/13 10:54:05;;;;;;;0.40;0.40;;;;;;;30.92;24.04;99490.25;5129642;28;20401;-78
2022/07/13 10:56:31;;;;;;;0.50;0.40;;;;;;;30.67;23.58;99492.44;5123517;28;20118;-78
2022/07/13 10:58:58;;;;;;;0.47;0.30;;;;;;;30.56;23.31;99471.34;5130546;28;20098;-78
2022/07/13 11:01:40;;;;;;;0.95;0.38;;;;;;;30.98;21.88;99474.97;5131652;27;20051;-78
2022/07/13 11:04:08;;;;;;;0.52;0.40;;;;;;;31.51;22.57;99458.63;5129028;27;20047;-78
2022/07/13 11:06:36;;;;;;;1.42;0.52;;;;;;;31.46;23.91;99456.78;5127995;27;20066;-79
2022/07/13 11:09:13;;;;;;;0.32;0.32;;;;;;;31.50;23.79;99448.56;5129732;28;20047;-78
2022/07/13 11:11:47;;;;;;;0.57;0.52;;;;;;;32.22;23.87;99458.03;5128793;27;20039;-78
2022/07/13 11:14:49;;;;;;;0.77;0.52;;;;;;;32.60;23.76;99466.00;5130062;28;20047;-78
2022/07/13 11:17:19;;;;;;;3.50;0.50;;;;;;;32.63;23.78;99454.91;5131163;27;20051;-78
2022/07/13 11:19:57;;;;;;;3.15;0.50;;;;;;;33.11;25.38;99452.44;5130905;28;20086;-78
2022/07/13 11:22:24;;;;;;;0.43;0.43;;;;;;;32.90;23.32;99455.88;5130720;27;20061;-79
2022/07/13 11:25:14;;;;;;;1.55;0.45;;;;;;;32.78;21.81;99456.50;5129686;27;20565;-78
2022/07/13 11:27:49;;;;;;;1.00;0.32;;;;;;;32.54;21.96;99458.88;5124983;28;20051;-78
2022/07/13 11:30:22;;;;;;;2.03;0.32;;;;;;;32.56;21.29;99440.47;5129607;27;20051;-78
2022/07/13 11:32:50;;;;;;;2.17;0.52;;;;;;;32.35;20.29;99445.03;5130590;28;20070;-78
2022/07/13 11:35:17;;;;;;;3.50;0.50;;;;;;;33.08;21.76;99447.47;5132340;27;20401;-78
2022/07/13 11:37:44;;;;;;;0.30;0.30;;;;;;;33.36;19.85;99435.91;5135025;27;20043;-78
2022/07/13 11:40:25;;;;;;;0.98;0.35;;;;;;;33.43;19.27;99431.44;5124974;27;20048;-78
2022/07/13 11:42:53;;;;;;;0.82;0.38;;;;;;;33.21;19.05;99437.22;5133867;27;20055;-78